< Typhoon 197129 1971 Season Typhoon 197131 >
Typhoon 197130 (DELLA)
General InformationTrack Information on Google Maps || Disaster Info.ResourceGoogle EarthGE AnimationAtom FeedGeoJSON
Detalied Best Track (Time Zone = UTC)
Year Month Day Hour Lat. Long. Pressure (hPa) Wind (kt) Class Image Chart
1971 9 24 06 12.5 129.0 1004 0 2 -- Chart
1971 9 24 12 13.4 128.6 1004 0 2 -- Chart
1971 9 24 18 14.2 128.3 1004 0 2 -- Chart
1971 9 25 00 14.6 127.8 1004 0 2 -- Chart
1971 9 25 06 15.2 127.3 1004 0 2 -- Chart
1971 9 25 12 15.5 126.7 1004 0 2 -- Chart
1971 9 25 18 15.7 126.3 1004 0 2 -- Chart
1971 9 26 00 16.0 125.6 1004 0 2 -- Chart
1971 9 26 06 16.2 124.8 1004 0 2 -- Chart
1971 9 26 12 16.3 124.0 1004 0 2 -- Chart
1971 9 26 18 16.4 123.2 1002 0 2 -- Chart
1971 9 27 00 16.5 122.3 1000 0 9 -- Chart
1971 9 27 06 16.7 121.2 1000 0 9 -- Chart
1971 9 27 12 17.2 120.0 1000 0 9 -- Chart
1971 9 27 18 18.0 118.7 1000 0 9 -- Chart
1971 9 28 00 18.7 117.3 995 0 9 -- Chart
1971 9 28 06 19.0 115.8 992 0 9 -- Chart
1971 9 28 12 19.0 114.5 985 0 9 -- Chart
1971 9 28 18 19.0 112.4 980 0 9 -- Chart
1971 9 29 00 19.1 111.0 980 0 9 -- Chart
1971 9 29 06 19.2 110.9 985 0 9 -- Chart
1971 9 29 12 19.2 109.8 990 0 9 -- Chart
1971 9 29 18 18.8 109.0 994 0 9 -- Chart
1971 9 30 00 18.0 107.5 994 0 9 -- Chart
1971 9 30 06 18.0 106.0 996 0 9 -- Chart
1971 9 30 12 18.0 104.9 998 0 9 -- Chart
1971 9 30 18 18.0 103.7 1000 0 2 -- Chart
1971 10 1 00 18.0 102.8 1002 0 2 -- Chart
1971 10 1 06 18.0 101.2 1002 0 2 -- Chart
1971 10 1 12 18.0 99.0 1002 0 2 -- Chart
Japan Meteorological Agency Best Track Data | Correction Date : 1990-10-17
< Typhoon 197129 1971 Season Typhoon 197131 >

Help